Deerton, Michigan
Current Conditions -  °F | °C
As of 2:50 PM on Thursday 23 Oct 2014 (Local Time) from KSAW Reporting Station
Overcast Overcast  
Wind Chill: 39°   Ceiling: 8000
Heat Index: 46°   Visibility: 10mi
Dew Point: 41°   Wind: 17mph
Humidity: 81%   Direction: 170°S
Pressure: 30.04"   Gusts: NA
Location:  46.47°N, 87.04°W
Report Text: KSAW 231850Z 17015KT 10SM SCT049 BKN080 OVC110 08/05 A3004
Loading
Personal Weather Stations






























Interactive Weather Map
Tropical Storm Tracking
New forecast layout! Learn more

10-Day Weather Forecast

Advertisements
Track Severe Weather on mobile